createdAt,value
2018-08-24T00:00:27.001Z,8.07
2018-08-24T00:02:55.243Z,7.93
2018-08-24T00:05:23.439Z,7.13
2018-08-24T00:07:51.551Z,7.47
2018-08-24T00:10:19.983Z,7.13
2018-08-24T00:12:48.306Z,7.70
2018-08-24T00:15:16.463Z,8.17
2018-08-24T00:17:46.683Z,8.37
2018-08-24T00:20:14.929Z,7.67
2018-08-24T00:22:43.273Z,8.43
2018-08-24T00:25:11.557Z,7.10
2018-08-24T00:27:39.949Z,7.37
2018-08-24T00:30:08.509Z,7.87
2018-08-24T00:32:36.748Z,7.60
2018-08-24T00:35:04.911Z,7.50
2018-08-24T00:37:33.171Z,7.17
2018-08-24T00:40:01.367Z,8.90
2018-08-24T00:42:29.610Z,8.40
2018-08-24T00:44:57.901Z,8.80
2018-08-24T00:47:26.102Z,8.47
2018-08-24T00:49:54.282Z,7.80
2018-08-24T00:52:23.138Z,9.10
2018-08-24T00:54:51.443Z,9.23
2018-08-24T00:57:19.592Z,8.33
2018-08-24T00:59:47.820Z,8.67
2018-08-24T01:02:16.148Z,8.63
2018-08-24T01:04:44.426Z,8.93
2018-08-24T01:07:13.621Z,9.33
2018-08-24T01:09:42.352Z,8.70
2018-08-24T01:12:12.776Z,8.90
2018-08-24T01:14:45.014Z,8.83
2018-08-24T01:17:18.926Z,7.90
2018-08-24T01:19:47.400Z,8.33
2018-08-24T01:22:24.577Z,8.53
2018-08-24T01:24:52.825Z,7.57
2018-08-24T01:27:21.013Z,8.97
2018-08-24T01:29:49.254Z,7.87
2018-08-24T01:32:17.401Z,8.50
2018-08-24T01:34:45.496Z,7.73
2018-08-24T01:37:13.915Z,8.60
2018-08-24T01:39:42.119Z,8.90
2018-08-24T01:42:10.320Z,8.57
2018-08-24T01:44:38.505Z,8.53
2018-08-24T01:47:06.773Z,7.87
2018-08-24T01:49:34.867Z,8.70
2018-08-24T01:52:03.060Z,8.47
2018-08-24T01:54:31.175Z,8.83
2018-08-24T01:56:59.287Z,8.10
2018-08-24T01:59:27.389Z,9.30
2018-08-24T02:01:55.470Z,8.93
2018-08-24T02:04:23.727Z,8.50
2018-08-24T02:06:51.939Z,8.03
2018-08-24T02:09:22.900Z,7.33
2018-08-24T02:11:51.524Z,7.80
2018-08-24T02:14:25.475Z,7.90
2018-08-24T02:16:53.697Z,8.47
2018-08-24T02:19:27.608Z,8.30
2018-08-24T02:22:01.397Z,8.50
2018-08-24T02:24:29.563Z,7.77
2018-08-24T02:26:57.843Z,9.00
2018-08-24T02:29:26.747Z,8.80
2018-08-24T02:31:54.976Z,10.13
2018-08-24T02:34:23.219Z,9.90
2018-08-24T02:36:51.552Z,9.50
2018-08-24T02:39:19.700Z,8.73
2018-08-24T02:41:48.011Z,9.60
2018-08-24T02:44:16.135Z,8.23
2018-08-24T02:46:44.515Z,9.63
2018-08-24T02:49:12.765Z,8.87
2018-08-24T02:51:40.906Z,9.37
2018-08-24T02:54:09.105Z,9.97
2018-08-24T02:56:37.256Z,9.80
2018-08-24T02:59:05.386Z,8.47
2018-08-24T03:01:33.650Z,10.60
2018-08-24T03:04:01.838Z,11.07
2018-08-24T03:06:30.022Z,11.23
2018-08-24T03:08:58.182Z,10.97
2018-08-24T03:11:26.402Z,10.00
2018-08-24T03:13:54.712Z,9.53
2018-08-24T03:16:22.969Z,9.73
2018-08-24T03:18:51.184Z,10.83
2018-08-24T03:21:19.392Z,10.50
2018-08-24T03:23:47.521Z,10.00
2018-08-24T03:26:15.726Z,9.30
2018-08-24T03:28:43.878Z,10.20
2018-08-24T03:31:11.947Z,8.50
2018-08-24T03:33:40.079Z,9.90
2018-08-24T03:36:08.388Z,10.43
2018-08-24T03:38:36.623Z,10.33
2018-08-24T03:41:04.905Z,11.07
2018-08-24T03:43:33.075Z,11.50
2018-08-24T03:46:01.379Z,10.10
2018-08-24T03:48:29.479Z,12.90
2018-08-24T03:50:57.741Z,12.70
2018-08-24T03:53:25.990Z,14.63
2018-08-24T03:55:54.105Z,13.33
2018-08-24T03:58:22.403Z,12.00
2018-08-24T04:00:55.096Z,13.60
2018-08-24T04:03:23.295Z,12.77
2018-08-24T04:05:51.597Z,14.27
2018-08-24T04:08:19.880Z,12.63
2018-08-24T04:10:47.991Z,14.33
2018-08-24T04:13:16.257Z,13.63
2018-08-24T04:15:44.603Z,15.43
2018-08-24T04:18:12.890Z,13.83
2018-08-24T04:20:41.619Z,15.60
2018-08-24T04:23:09.831Z,15.50
2018-08-24T04:25:38.100Z,12.43
2018-08-24T04:28:06.553Z,15.03
2018-08-24T04:30:35.294Z,15.00
2018-08-24T04:33:03.675Z,13.90
2018-08-24T04:35:31.870Z,13.40
2018-08-24T04:38:00.223Z,13.90
2018-08-24T04:40:28.713Z,13.37
2018-08-24T04:42:57.093Z,15.33
2018-08-24T04:45:25.334Z,14.00
2018-08-24T04:47:53.489Z,14.60
2018-08-24T04:50:21.667Z,13.40
2018-08-24T04:52:49.818Z,15.27
2018-08-24T04:55:18.891Z,14.37
2018-08-24T04:57:47.148Z,15.87
2018-08-24T05:00:15.304Z,14.53
2018-08-24T05:02:43.553Z,14.67
2018-08-24T05:05:11.734Z,15.17
2018-08-24T05:07:39.942Z,14.70
2018-08-24T05:10:08.125Z,14.47
2018-08-24T05:12:36.504Z,14.53
2018-08-24T05:15:05.007Z,13.13
2018-08-24T05:17:34.821Z,13.47
2018-08-24T05:20:03.101Z,13.40
2018-08-24T05:22:31.370Z,14.03
2018-08-24T05:24:59.632Z,14.00
2018-08-24T05:27:27.926Z,13.50
2018-08-24T05:29:56.134Z,14.97
2018-08-24T05:32:25.077Z,15.00
2018-08-24T05:34:53.332Z,13.47
2018-08-24T05:37:21.862Z,14.77
2018-08-24T05:39:50.110Z,13.77
2018-08-24T05:42:18.386Z,12.60
2018-08-24T05:44:46.602Z,15.23
2018-08-24T05:47:14.719Z,16.70
2018-08-24T05:49:42.905Z,17.13
2018-08-24T05:52:12.730Z,16.93
2018-08-24T05:54:50.839Z,16.93
2018-08-24T05:57:18.986Z,17.80
2018-08-24T05:59:47.361Z,17.60
2018-08-24T06:02:16.143Z,16.37
2018-08-24T06:04:44.377Z,15.67
2018-08-24T06:07:12.495Z,18.40
2018-08-24T06:09:40.780Z,16.60
2018-08-24T06:12:08.986Z,15.70
2018-08-24T06:14:37.099Z,16.27
2018-08-24T06:17:11.030Z,16.77
2018-08-24T06:19:39.157Z,17.47
2018-08-24T06:22:07.449Z,16.47
2018-08-24T06:24:35.681Z,19.03
2018-08-24T06:27:03.728Z,14.17
2018-08-24T06:29:31.898Z,15.67
2018-08-24T06:32:00.060Z,17.23
2018-08-24T06:34:28.167Z,16.30
2018-08-24T06:36:56.399Z,16.77
2018-08-24T06:39:24.574Z,16.93
2018-08-24T06:41:52.804Z,17.67
2018-08-24T06:44:20.818Z,18.27
2018-08-24T06:46:48.907Z,17.10
2018-08-24T06:49:16.987Z,16.07
2018-08-24T06:51:45.464Z,20.37
2018-08-24T06:54:13.717Z,19.13
2018-08-24T06:56:41.979Z,16.13
2018-08-24T06:59:10.392Z,20.23
2018-08-24T07:01:45.149Z,14.57
2018-08-24T07:04:13.458Z,19.20
2018-08-24T07:06:42.051Z,13.27
2018-08-24T07:09:10.325Z,21.53
2018-08-24T07:11:39.325Z,16.70
2018-08-24T07:14:07.562Z,15.67
2018-08-24T07:16:35.893Z,17.73
2018-08-24T07:19:04.289Z,14.53
2018-08-24T07:21:32.697Z,13.97
2018-08-24T07:24:00.837Z,14.70
2018-08-24T07:26:29.109Z,14.93
2018-08-24T07:28:57.448Z,14.67
2018-08-24T07:31:25.780Z,15.30
2018-08-24T07:33:54.142Z,13.27
2018-08-24T07:36:22.424Z,11.67
2018-08-24T07:38:50.699Z,12.50
2018-08-24T07:41:19.181Z,8.65
2018-08-24T07:43:47.463Z,12.07
2018-08-24T07:46:15.699Z,9.20
2018-08-24T07:48:44.392Z,10.15
2018-08-24T07:51:12.848Z,9.35
2018-08-24T07:53:41.269Z,7.15
2018-08-24T07:56:09.533Z,8.63
2018-08-24T07:58:37.944Z,9.75
2018-08-24T08:01:06.241Z,8.40
2018-08-24T08:03:34.613Z,8.53
2018-08-24T08:06:02.908Z,7.05
2018-08-24T08:08:31.244Z,8.00
2018-08-24T08:10:59.497Z,6.58
2018-08-24T08:13:27.962Z,6.60
2018-08-24T08:15:56.295Z,6.22
2018-08-24T08:18:24.609Z,7.62
2018-08-24T08:20:52.851Z,5.92
2018-08-24T08:23:21.068Z,5.87
2018-08-24T08:25:49.358Z,6.97
2018-08-24T08:28:17.596Z,4.65
2018-08-24T08:30:45.825Z,4.78
2018-08-24T08:33:14.056Z,5.08
2018-08-24T08:35:42.346Z,3.77
2018-08-24T08:38:10.629Z,4.58
2018-08-24T08:40:38.838Z,2.65
2018-08-24T08:43:07.195Z,3.52
2018-08-24T08:45:36.608Z,4.47
2018-08-24T08:48:04.830Z,3.45
2018-08-24T08:50:33.090Z,4.00
2018-08-24T08:53:01.429Z,3.60
2018-08-24T08:55:29.700Z,2.95
2018-08-24T08:57:57.989Z,2.83
2018-08-24T09:00:27.055Z,2.52
2018-08-24T09:02:55.409Z,4.05
2018-08-24T09:05:24.042Z,4.03
2018-08-24T09:07:52.338Z,3.70
2018-08-24T09:10:20.539Z,3.20
2018-08-24T09:12:48.840Z,3.60
2018-08-24T09:15:17.035Z,3.30
2018-08-24T09:17:50.643Z,3.52
2018-08-24T09:20:24.449Z,4.37
2018-08-24T09:22:58.273Z,4.00
2018-08-24T09:25:32.249Z,5.78
2018-08-24T09:28:10.814Z,4.20
2018-08-24T09:30:42.676Z,5.15
2018-08-24T09:33:10.934Z,5.30
2018-08-24T09:35:39.152Z,4.80
2018-08-24T09:38:07.992Z,4.97
2018-08-24T09:40:41.962Z,4.80
2018-08-24T09:43:15.632Z,5.30
2018-08-24T09:45:44.012Z,5.40
2018-08-24T09:48:17.844Z,6.50
2018-08-24T09:50:51.759Z,6.62
2018-08-24T09:53:25.742Z,5.58
2018-08-24T09:55:54.012Z,5.65
2018-08-24T09:58:22.245Z,5.60
2018-08-24T10:00:56.240Z,5.12
2018-08-24T10:03:29.949Z,3.35
2018-08-24T10:06:03.656Z,3.60
2018-08-24T10:08:37.418Z,3.20
2018-08-24T10:11:05.520Z,2.92
2018-08-24T10:13:33.699Z,2.90
2018-08-24T10:16:01.840Z,2.83
2018-08-24T10:18:33.283Z,2.83
2018-08-24T10:21:01.567Z,3.15
2018-08-24T10:23:29.655Z,2.67
2018-08-24T10:25:57.731Z,2.55
2018-08-24T10:28:25.890Z,3.12
2018-08-24T10:30:54.255Z,1.82
2018-08-24T10:33:22.495Z,3.15
2018-08-24T10:35:50.611Z,3.20
2018-08-24T10:38:19.047Z,2.90
2018-08-24T10:40:47.182Z,3.10
2018-08-24T10:43:15.851Z,3.02
2018-08-24T10:45:44.143Z,2.87
2018-08-24T10:48:12.449Z,3.42
2018-08-24T10:50:40.803Z,3.60
2018-08-24T10:53:09.136Z,3.00
2018-08-24T10:55:37.429Z,2.70
2018-08-24T10:58:06.417Z,2.70
2018-08-24T11:00:34.718Z,2.22
2018-08-24T11:03:02.939Z,2.98
2018-08-24T11:05:31.332Z,3.15
2018-08-24T11:07:59.530Z,2.70
2018-08-24T11:10:27.959Z,2.70
2018-08-24T11:12:56.198Z,3.27
2018-08-24T11:15:24.395Z,2.90
2018-08-24T11:17:58.204Z,2.72
2018-08-24T11:20:26.399Z,2.52
2018-08-24T11:22:54.699Z,3.37
2018-08-24T11:25:23.009Z,3.17
2018-08-24T11:27:51.250Z,3.60
2018-08-24T11:30:21.039Z,3.42
2018-08-24T11:32:49.949Z,2.87
2018-08-24T11:35:20.332Z,2.55
2018-08-24T11:37:49.259Z,1.70
2018-08-24T11:40:17.822Z,2.58
2018-08-24T11:42:46.427Z,2.55
2018-08-24T11:45:14.640Z,1.90
2018-08-24T11:47:42.927Z,3.20
2018-08-24T11:50:11.148Z,3.05
2018-08-24T11:52:39.365Z,3.12
2018-08-24T11:55:07.662Z,2.72
2018-08-24T11:57:35.886Z,2.40
2018-08-24T12:00:04.761Z,3.20
2018-08-24T12:02:33.767Z,2.62
2018-08-24T12:05:03.364Z,2.72
2018-08-24T12:07:31.565Z,2.67
2018-08-24T12:09:59.699Z,3.45
2018-08-24T12:12:27.921Z,3.05
2018-08-24T12:14:56.187Z,3.30
2018-08-24T12:17:35.771Z,2.00
2018-08-24T12:20:04.463Z,3.10
2018-08-24T12:22:32.763Z,3.20
2018-08-24T12:25:01.003Z,3.17
2018-08-24T12:27:29.157Z,3.62
2018-08-24T12:29:57.401Z,2.92
2018-08-24T12:32:25.631Z,3.00
2018-08-24T12:34:53.945Z,3.42
2018-08-24T12:37:22.660Z,3.35
2018-08-24T12:39:51.063Z,3.87
2018-08-24T12:42:26.137Z,3.40
2018-08-24T12:44:54.438Z,3.90
2018-08-24T12:47:22.705Z,4.00
2018-08-24T12:49:51.047Z,3.87
2018-08-24T12:52:19.322Z,4.20
2018-08-24T12:54:47.566Z,4.10
2018-08-24T12:57:15.813Z,4.50
2018-08-24T12:59:44.160Z,4.93
2018-08-24T13:02:15.757Z,5.00
2018-08-24T13:04:45.164Z,5.33
2018-08-24T13:07:13.720Z,5.00
2018-08-24T13:09:41.961Z,5.00
2018-08-24T13:12:10.258Z,4.67
2018-08-24T13:14:38.532Z,5.07
2018-08-24T13:17:06.709Z,4.80
2018-08-24T13:19:35.054Z,4.77
2018-08-24T13:22:03.272Z,4.50
2018-08-24T13:24:32.332Z,5.07
2018-08-24T13:27:00.660Z,4.43
2018-08-24T13:29:28.958Z,5.23
2018-08-24T13:31:58.258Z,4.73
2018-08-24T13:34:33.084Z,4.87
2018-08-24T13:37:01.466Z,4.93
2018-08-24T13:39:29.618Z,5.53
2018-08-24T13:42:04.512Z,4.57
2018-08-24T13:44:38.446Z,5.70
2018-08-24T13:47:06.748Z,5.60
2018-08-24T13:49:35.445Z,5.00
2018-08-24T13:52:12.848Z,4.87
2018-08-24T13:54:41.222Z,4.57
2018-08-24T13:57:11.325Z,4.60
2018-08-24T13:59:40.743Z,5.63
2018-08-24T14:02:08.993Z,5.03
2018-08-24T14:04:37.305Z,4.97
2018-08-24T14:07:05.662Z,5.00
2018-08-24T14:09:33.951Z,4.83
2018-08-24T14:12:02.313Z,4.77
2018-08-24T14:14:30.481Z,5.20
2018-08-24T14:16:58.785Z,5.47
2018-08-24T14:19:27.647Z,5.20
2018-08-24T14:21:55.957Z,5.20
2018-08-24T14:24:24.418Z,5.03
2018-08-24T14:26:52.648Z,4.77
2018-08-24T14:29:22.183Z,5.37
2018-08-24T14:31:57.220Z,5.20
2018-08-24T14:34:25.489Z,5.97
2018-08-24T14:37:00.748Z,5.30
2018-08-24T14:39:29.460Z,5.37
2018-08-24T14:42:01.067Z,5.37
2018-08-24T14:44:30.191Z,5.20
2018-08-24T14:46:58.475Z,4.83
2018-08-24T14:49:26.776Z,5.30
2018-08-24T14:51:54.981Z,5.73
2018-08-24T14:54:23.417Z,5.43
2018-08-24T14:56:51.673Z,6.17
2018-08-24T14:59:19.956Z,5.57
2018-08-24T15:01:48.167Z,6.00
2018-08-24T15:04:16.390Z,5.90
2018-08-24T15:06:44.685Z,4.80
2018-08-24T15:09:13.019Z,5.67
2018-08-24T15:11:41.590Z,5.33
2018-08-24T15:14:10.545Z,5.43
2018-08-24T15:16:50.860Z,5.63
2018-08-24T15:19:19.116Z,5.67
2018-08-24T15:21:47.318Z,6.40
2018-08-24T15:24:15.554Z,5.83
2018-08-24T15:26:43.783Z,5.33
2018-08-24T15:29:12.028Z,5.77
2018-08-24T15:31:40.222Z,5.73
2018-08-24T15:34:08.442Z,6.17
2018-08-24T15:36:37.180Z,5.60
2018-08-24T15:39:10.315Z,5.77
2018-08-24T15:41:38.892Z,6.00
2018-08-24T15:44:07.424Z,5.63
2018-08-24T15:46:35.664Z,6.23
2018-08-24T15:49:04.650Z,6.33
2018-08-24T15:51:32.835Z,6.30
2018-08-24T15:54:01.021Z,6.73
2018-08-24T15:56:29.284Z,6.93
2018-08-24T15:58:57.511Z,7.17
2018-08-24T16:01:25.855Z,6.50
2018-08-24T16:03:54.315Z,6.60
2018-08-24T16:06:22.598Z,6.37
2018-08-24T16:08:51.098Z,6.97
2018-08-24T16:11:19.384Z,5.70
2018-08-24T16:13:47.829Z,8.77
2018-08-24T16:16:16.417Z,7.07
2018-08-24T16:18:45.142Z,7.97
2018-08-24T16:21:13.862Z,7.20
2018-08-24T16:23:42.473Z,6.27
2018-08-24T16:26:16.465Z,6.53
2018-08-24T16:28:44.782Z,7.17
2018-08-24T16:31:13.259Z,7.90
2018-08-24T16:33:41.619Z,5.90
2018-08-24T16:36:10.168Z,9.33
2018-08-24T16:38:38.448Z,8.53
2018-08-24T16:41:06.775Z,8.50
2018-08-24T16:43:35.197Z,7.70
2018-08-24T16:46:03.437Z,7.83
2018-08-24T16:48:31.742Z,5.87
2018-08-24T16:51:00.019Z,7.47
2018-08-24T16:53:28.444Z,7.13
2018-08-24T16:55:56.879Z,6.70
2018-08-24T16:58:26.152Z,6.37
2018-08-24T17:00:54.612Z,5.20
2018-08-24T17:03:22.883Z,6.73
2018-08-24T17:05:51.135Z,6.93
2018-08-24T17:08:19.385Z,6.93
2018-08-24T17:10:47.724Z,6.60
2018-08-24T17:13:15.967Z,5.53
2018-08-24T17:15:44.356Z,5.67
2018-08-24T17:18:12.504Z,6.00
2018-08-24T17:20:40.721Z,6.10
2018-08-24T17:23:09.001Z,6.27
2018-08-24T17:25:37.598Z,7.07
2018-08-24T17:28:05.842Z,6.00
2018-08-24T17:30:34.036Z,6.43
2018-08-24T17:33:02.260Z,6.80
2018-08-24T17:35:30.486Z,5.93
2018-08-24T17:37:58.887Z,6.20
2018-08-24T17:40:27.125Z,7.90
2018-08-24T17:42:55.650Z,8.43
2018-08-24T17:45:24.039Z,7.33
2018-08-24T17:47:52.464Z,8.67
2018-08-24T17:50:20.728Z,7.80
2018-08-24T17:52:48.925Z,8.43
2018-08-24T17:55:17.076Z,7.83
2018-08-24T17:57:45.276Z,8.93
2018-08-24T18:00:13.454Z,8.97
2018-08-24T18:02:41.674Z,9.77
2018-08-24T18:05:10.023Z,9.97
2018-08-24T18:07:38.233Z,8.47
2018-08-24T18:10:06.500Z,8.77
2018-08-24T18:12:34.736Z,7.37
2018-08-24T18:15:03.146Z,7.40
2018-08-24T18:17:31.232Z,9.60
2018-08-24T18:19:59.461Z,7.80
2018-08-24T18:22:27.692Z,8.10
2018-08-24T18:24:56.001Z,7.57
2018-08-24T18:27:24.218Z,9.30
2018-08-24T18:29:52.482Z,8.50
2018-08-24T18:32:21.402Z,8.70
2018-08-24T18:34:49.823Z,8.73
2018-08-24T18:37:18.047Z,8.90
2018-08-24T18:39:46.424Z,8.63
2018-08-24T18:42:14.630Z,7.97
2018-08-24T18:44:42.896Z,8.07
2018-08-24T18:47:11.223Z,8.77
2018-08-24T18:49:39.430Z,7.57
2018-08-24T18:52:07.713Z,8.33
2018-08-24T18:54:35.897Z,8.80
2018-08-24T18:57:04.333Z,10.20
2018-08-24T18:59:32.554Z,9.57
2018-08-24T19:02:00.867Z,9.53
2018-08-24T19:04:29.024Z,10.53
2018-08-24T19:06:57.243Z,10.23
2018-08-24T19:09:25.412Z,10.60
2018-08-24T19:11:59.403Z,10.60
2018-08-24T19:14:27.531Z,9.87
2018-08-24T19:16:58.685Z,9.93
2018-08-24T19:19:32.654Z,11.20
2018-08-24T19:22:02.855Z,11.20
2018-08-24T19:24:31.347Z,10.50
2018-08-24T19:26:59.757Z,9.50
2018-08-24T19:29:33.637Z,11.00
2018-08-24T19:32:01.846Z,11.30
2018-08-24T19:34:30.098Z,10.83
2018-08-24T19:36:59.212Z,10.30
2018-08-24T19:39:27.746Z,10.13
2018-08-24T19:42:01.573Z,10.10
2018-08-24T19:44:29.974Z,11.37
2018-08-24T19:46:58.317Z,11.07
2018-08-24T19:49:26.647Z,10.17
2018-08-24T19:51:54.852Z,10.17
2018-08-24T19:54:23.086Z,9.87
2018-08-24T19:56:51.419Z,10.43
2018-08-24T19:59:19.752Z,11.07
2018-08-24T20:01:48.170Z,10.47
2018-08-24T20:04:17.421Z,9.97
2018-08-24T20:06:51.230Z,10.90
2018-08-24T20:09:25.100Z,10.13
2018-08-24T20:11:53.437Z,10.63
2018-08-24T20:14:27.679Z,10.23
2018-08-24T20:17:02.000Z,10.50
2018-08-24T20:19:30.232Z,10.97
2018-08-24T20:21:58.453Z,10.30
2018-08-24T20:24:26.851Z,10.50
2018-08-24T20:26:55.193Z,10.57
2018-08-24T20:29:23.472Z,10.57
2018-08-24T20:31:51.760Z,10.00
2018-08-24T20:34:19.935Z,9.93
2018-08-24T20:36:48.128Z,9.90
2018-08-24T20:39:16.385Z,10.40
2018-08-24T20:41:44.588Z,10.23
2018-08-24T20:44:12.750Z,9.67
2018-08-24T20:46:40.996Z,9.80
2018-08-24T20:49:09.249Z,10.40
2018-08-24T20:51:37.556Z,10.20
2018-08-24T20:54:05.755Z,10.17
2018-08-24T20:56:34.021Z,9.70
2018-08-24T20:59:02.285Z,9.70
2018-08-24T21:01:30.764Z,9.83
2018-08-24T21:03:59.284Z,8.53
2018-08-24T21:06:27.433Z,9.67
2018-08-24T21:08:55.750Z,9.67
2018-08-24T21:11:24.037Z,10.43
2018-08-24T21:13:52.290Z,9.93
2018-08-24T21:16:20.561Z,10.33
2018-08-24T21:18:48.846Z,9.90
2018-08-24T21:21:17.189Z,10.13
2018-08-24T21:23:45.438Z,10.33
2018-08-24T21:26:13.788Z,9.93
2018-08-24T21:28:42.220Z,10.57
2018-08-24T21:31:10.436Z,10.50
2018-08-24T21:33:38.745Z,9.77
2018-08-24T21:36:06.948Z,9.60
2018-08-24T21:38:35.123Z,10.90
2018-08-24T21:41:03.490Z,10.13
2018-08-24T21:43:31.674Z,10.43
2018-08-24T21:45:59.947Z,9.80
2018-08-24T21:48:28.170Z,11.10
2018-08-24T21:50:56.422Z,11.40
2018-08-24T21:53:24.736Z,11.50
2018-08-24T21:55:53.012Z,9.70
2018-08-24T21:58:21.820Z,11.47
2018-08-24T22:00:50.097Z,12.80
2018-08-24T22:03:18.331Z,11.13
2018-08-24T22:05:46.507Z,12.93
2018-08-24T22:08:14.758Z,13.13
2018-08-24T22:10:43.064Z,12.07
2018-08-24T22:13:11.480Z,13.40
2018-08-24T22:15:39.810Z,12.43
2018-08-24T22:18:08.124Z,13.20
2018-08-24T22:20:36.320Z,13.20
2018-08-24T22:23:04.584Z,13.23
2018-08-24T22:25:33.486Z,12.90
2018-08-24T22:28:01.884Z,13.37
2018-08-24T22:30:30.141Z,12.83
2018-08-24T22:32:58.304Z,12.33
2018-08-24T22:35:26.444Z,13.60
2018-08-24T22:37:54.580Z,13.47
2018-08-24T22:40:22.831Z,14.70
2018-08-24T22:42:51.075Z,14.33
2018-08-24T22:45:19.324Z,13.80
2018-08-24T22:47:47.656Z,12.20
2018-08-24T22:50:15.914Z,14.47
2018-08-24T22:52:44.136Z,12.43
2018-08-24T22:55:12.324Z,12.80
2018-08-24T22:57:40.580Z,11.83
2018-08-24T23:00:08.895Z,12.40
2018-08-24T23:02:37.134Z,13.63
2018-08-24T23:05:05.327Z,13.13
2018-08-24T23:07:33.432Z,12.57
2018-08-24T23:10:01.543Z,11.10
2018-08-24T23:12:29.692Z,14.07
2018-08-24T23:14:57.917Z,11.43
2018-08-24T23:17:26.042Z,12.60
2018-08-24T23:19:55.269Z,12.10
2018-08-24T23:22:23.462Z,14.03
2018-08-24T23:24:51.774Z,11.73
2018-08-24T23:27:19.928Z,12.43
2018-08-24T23:29:48.111Z,12.37
2018-08-24T23:32:16.409Z,11.90
2018-08-24T23:34:44.607Z,12.00
2018-08-24T23:37:12.870Z,12.10
2018-08-24T23:39:41.130Z,11.40
2018-08-24T23:42:09.361Z,12.03
2018-08-24T23:44:40.900Z,11.90
2018-08-24T23:47:09.163Z,12.97
2018-08-24T23:49:37.559Z,12.40
2018-08-24T23:52:05.867Z,11.50
2018-08-24T23:54:34.113Z,12.27
2018-08-24T23:57:02.325Z,13.03
2018-08-24T23:59:30.615Z,12.27
